sensor_id;sensor_type;location;lat;lon;timestamp;P1;durP1;ratioP1;P2;durP2;ratioP2
63688;SDS011;54895;40.928;14.480;2023-02-01T00:00:18;49.05;;;30.65;;
63688;SDS011;54895;40.928;14.480;2023-02-01T00:02:45;57.53;;;32.97;;
63688;SDS011;54895;40.928;14.480;2023-02-01T00:05:11;49.10;;;26.52;;
63688;SDS011;54895;40.928;14.480;2023-02-01T00:07:37;65.68;;;39.15;;
63688;SDS011;54895;40.928;14.480;2023-02-01T00:10:04;63.40;;;37.72;;
63688;SDS011;54895;40.928;14.480;2023-02-01T00:12:32;53.28;;;31.15;;
63688;SDS011;54895;40.928;14.480;2023-02-01T00:14:58;53.90;;;29.88;;
63688;SDS011;54895;40.928;14.480;2023-02-01T00:17:25;45.40;;;27.75;;
63688;SDS011;54895;40.928;14.480;2023-02-01T00:19:51;41.88;;;25.55;;
63688;SDS011;54895;40.928;14.480;2023-02-01T00:22:17;45.55;;;25.15;;
63688;SDS011;54895;40.928;14.480;2023-02-01T00:24:43;43.30;;;26.13;;
63688;SDS011;54895;40.928;14.480;2023-02-01T00:27:10;33.78;;;19.42;;
63688;SDS011;54895;40.928;14.480;2023-02-01T00:29:37;29.25;;;18.63;;
63688;SDS011;54895;40.928;14.480;2023-02-01T00:32:03;26.90;;;15.38;;
63688;SDS011;54895;40.928;14.480;2023-02-01T00:34:30;44.22;;;23.27;;
63688;SDS011;54895;40.928;14.480;2023-02-01T00:36:56;46.30;;;26.42;;
63688;SDS011;54895;40.928;14.480;2023-02-01T00:39:23;38.05;;;21.05;;
63688;SDS011;54895;40.928;14.480;2023-02-01T00:41:49;30.05;;;17.35;;
63688;SDS011;54895;40.928;14.480;2023-02-01T00:44:15;28.08;;;16.92;;
63688;SDS011;54895;40.928;14.480;2023-02-01T00:46:42;31.35;;;19.20;;
63688;SDS011;54895;40.928;14.480;2023-02-01T00:49:08;38.45;;;21.80;;
63688;SDS011;54895;40.928;14.480;2023-02-01T00:51:34;44.53;;;24.77;;
63688;SDS011;54895;40.928;14.480;2023-02-01T00:54:01;43.58;;;23.85;;
63688;SDS011;54895;40.928;14.480;2023-02-01T00:56:29;39.25;;;22.95;;
63688;SDS011;54895;40.928;14.480;2023-02-01T00:58:55;36.17;;;22.55;;
63688;SDS011;54895;40.928;14.480;2023-02-01T01:01:23;49.78;;;26.60;;
63688;SDS011;54895;40.928;14.480;2023-02-01T01:03:55;44.58;;;27.30;;
63688;SDS011;54895;40.928;14.480;2023-02-01T01:06:24;48.38;;;27.85;;
63688;SDS011;54895;40.928;14.480;2023-02-01T01:08:53;54.45;;;31.30;;
63688;SDS011;54895;40.928;14.480;2023-02-01T01:11:22;54.03;;;33.05;;
63688;SDS011;54895;40.928;14.480;2023-02-01T01:13:50;57.25;;;35.70;;
63688;SDS011;54895;40.928;14.480;2023-02-01T01:16:19;55.17;;;34.58;;
63688;SDS011;54895;40.928;14.480;2023-02-01T01:18:47;59.15;;;34.35;;
63688;SDS011;54895;40.928;14.480;2023-02-01T01:21:14;53.42;;;34.13;;
63688;SDS011;54895;40.928;14.480;2023-02-01T01:23:42;56.75;;;33.95;;
63688;SDS011;54895;40.928;14.480;2023-02-01T01:26:12;51.90;;;32.63;;
63688;SDS011;54895;40.928;14.480;2023-02-01T01:28:41;50.00;;;30.15;;
63688;SDS011;54895;40.928;14.480;2023-02-01T01:31:07;50.28;;;30.70;;
63688;SDS011;54895;40.928;14.480;2023-02-01T01:33:37;58.80;;;34.92;;
63688;SDS011;54895;40.928;14.480;2023-02-01T01:36:08;52.17;;;32.15;;
63688;SDS011;54895;40.928;14.480;2023-02-01T01:38:37;51.88;;;31.98;;
63688;SDS011;54895;40.928;14.480;2023-02-01T01:41:05;55.50;;;34.17;;
63688;SDS011;54895;40.928;14.480;2023-02-01T01:43:52;63.75;;;35.47;;
63688;SDS011;54895;40.928;14.480;2023-02-01T01:46:24;59.00;;;35.88;;
63688;SDS011;54895;40.928;14.480;2023-02-01T01:48:57;57.53;;;33.88;;
63688;SDS011;54895;40.928;14.480;2023-02-01T01:51:25;57.30;;;36.30;;
63688;SDS011;54895;40.928;14.480;2023-02-01T01:54:06;58.42;;;35.53;;
63688;SDS011;54895;40.928;14.480;2023-02-01T01:56:38;58.60;;;35.42;;
63688;SDS011;54895;40.928;14.480;2023-02-01T01:59:07;55.83;;;33.40;;
63688;SDS011;54895;40.928;14.480;2023-02-01T02:01:35;61.92;;;35.63;;
63688;SDS011;54895;40.928;14.480;2023-02-01T02:04:01;61.28;;;35.20;;
63688;SDS011;54895;40.928;14.480;2023-02-01T02:09:17;54.50;;;33.03;;
63688;SDS011;54895;40.928;14.480;2023-02-01T02:11:43;54.70;;;32.85;;
63688;SDS011;54895;40.928;14.480;2023-02-01T02:14:10;54.63;;;31.60;;
63688;SDS011;54895;40.928;14.480;2023-02-01T02:29:13;51.33;;;30.60;;
63688;SDS011;54895;40.928;14.480;2023-02-01T02:39:45;46.25;;;29.48;;
63688;SDS011;54895;40.928;14.480;2023-02-01T02:48:08;47.55;;;28.80;;
63688;SDS011;54895;40.928;14.480;2023-02-01T02:53:51;49.67;;;29.08;;
63688;SDS011;54895;40.928;14.480;2023-02-01T02:56:37;43.58;;;25.67;;
63688;SDS011;54895;40.928;14.480;2023-02-01T02:59:24;35.28;;;19.80;;
63688;SDS011;54895;40.928;14.480;2023-02-01T03:02:12;22.58;;;13.00;;
63688;SDS011;54895;40.928;14.480;2023-02-01T03:04:58;46.30;;;28.50;;
63688;SDS011;54895;40.928;14.480;2023-02-01T03:10:24;43.83;;;24.77;;
63688;SDS011;54895;40.928;14.480;2023-02-01T03:13:00;39.00;;;22.75;;
63688;SDS011;54895;40.928;14.480;2023-02-01T03:18:06;37.30;;;21.42;;
63688;SDS011;54895;40.928;14.480;2023-02-01T03:20:46;32.80;;;19.40;;
63688;SDS011;54895;40.928;14.480;2023-02-01T03:23:16;29.30;;;19.00;;
63688;SDS011;54895;40.928;14.480;2023-02-01T03:25:46;30.30;;;18.33;;
63688;SDS011;54895;40.928;14.480;2023-02-01T03:28:14;32.10;;;18.08;;
63688;SDS011;54895;40.928;14.480;2023-02-01T03:30:45;34.10;;;20.35;;
63688;SDS011;54895;40.928;14.480;2023-02-01T03:33:13;26.67;;;16.10;;
63688;SDS011;54895;40.928;14.480;2023-02-01T03:38:23;26.80;;;16.87;;
63688;SDS011;54895;40.928;14.480;2023-02-01T03:40:53;29.52;;;17.23;;
63688;SDS011;54895;40.928;14.480;2023-02-01T03:43:53;31.30;;;19.25;;
63688;SDS011;54895;40.928;14.480;2023-02-01T03:46:27;41.92;;;24.38;;
63688;SDS011;54895;40.928;14.480;2023-02-01T03:49:03;43.08;;;23.77;;
63688;SDS011;54895;40.928;14.480;2023-02-01T03:51:34;36.45;;;19.58;;
63688;SDS011;54895;40.928;14.480;2023-02-01T03:54:04;34.10;;;20.60;;
63688;SDS011;54895;40.928;14.480;2023-02-01T03:56:35;36.42;;;19.95;;
63688;SDS011;54895;40.928;14.480;2023-02-01T03:59:04;31.38;;;18.77;;
63688;SDS011;54895;40.928;14.480;2023-02-01T04:01:34;38.42;;;20.70;;
63688;SDS011;54895;40.928;14.480;2023-02-01T04:04:00;34.53;;;21.25;;
63688;SDS011;54895;40.928;14.480;2023-02-01T04:06:27;32.35;;;19.70;;
63688;SDS011;54895;40.928;14.480;2023-02-01T04:08:58;34.45;;;19.77;;
63688;SDS011;54895;40.928;14.480;2023-02-01T04:11:25;33.72;;;21.15;;
63688;SDS011;54895;40.928;14.480;2023-02-01T04:13:53;32.35;;;20.02;;
63688;SDS011;54895;40.928;14.480;2023-02-01T04:16:19;29.38;;;17.98;;
63688;SDS011;54895;40.928;14.480;2023-02-01T04:18:45;27.63;;;16.73;;
63688;SDS011;54895;40.928;14.480;2023-02-01T04:21:12;28.30;;;17.17;;
63688;SDS011;54895;40.928;14.480;2023-02-01T04:23:38;26.80;;;16.13;;
63688;SDS011;54895;40.928;14.480;2023-02-01T04:26:04;29.05;;;17.08;;
63688;SDS011;54895;40.928;14.480;2023-02-01T04:28:31;27.17;;;18.73;;
63688;SDS011;54895;40.928;14.480;2023-02-01T04:30:57;32.90;;;19.67;;
63688;SDS011;54895;40.928;14.480;2023-02-01T04:33:24;31.65;;;18.15;;
63688;SDS011;54895;40.928;14.480;2023-02-01T04:35:50;26.77;;;17.05;;
63688;SDS011;54895;40.928;14.480;2023-02-01T04:38:17;24.50;;;15.32;;
63688;SDS011;54895;40.928;14.480;2023-02-01T04:40:46;27.15;;;15.52;;
63688;SDS011;54895;40.928;14.480;2023-02-01T04:43:13;26.75;;;15.00;;
63688;SDS011;54895;40.928;14.480;2023-02-01T04:45:39;23.80;;;14.73;;
63688;SDS011;54895;40.928;14.480;2023-02-01T04:48:05;27.83;;;15.57;;
63688;SDS011;54895;40.928;14.480;2023-02-01T04:50:32;31.75;;;19.65;;
63688;SDS011;54895;40.928;14.480;2023-02-01T04:52:58;33.05;;;21.23;;
63688;SDS011;54895;40.928;14.480;2023-02-01T04:55:24;33.10;;;20.08;;
63688;SDS011;54895;40.928;14.480;2023-02-01T04:57:50;39.03;;;19.65;;
63688;SDS011;54895;40.928;14.480;2023-02-01T05:00:17;32.33;;;19.67;;
63688;SDS011;54895;40.928;14.480;2023-02-01T05:02:43;34.80;;;19.42;;
63688;SDS011;54895;40.928;14.480;2023-02-01T05:05:10;32.17;;;19.27;;
63688;SDS011;54895;40.928;14.480;2023-02-01T05:07:36;34.35;;;19.60;;
63688;SDS011;54895;40.928;14.480;2023-02-01T05:10:02;29.92;;;19.00;;
63688;SDS011;54895;40.928;14.480;2023-02-01T05:12:29;35.97;;;18.55;;
63688;SDS011;54895;40.928;14.480;2023-02-01T05:15:14;33.58;;;20.48;;
63688;SDS011;54895;40.928;14.480;2023-02-01T05:17:40;28.23;;;19.17;;
63688;SDS011;54895;40.928;14.480;2023-02-01T05:20:07;30.58;;;19.98;;
63688;SDS011;54895;40.928;14.480;2023-02-01T05:22:34;31.92;;;20.08;;
63688;SDS011;54895;40.928;14.480;2023-02-01T05:25:00;32.00;;;19.85;;
63688;SDS011;54895;40.928;14.480;2023-02-01T05:27:28;31.20;;;19.20;;
63688;SDS011;54895;40.928;14.480;2023-02-01T05:29:56;33.05;;;19.55;;
63688;SDS011;54895;40.928;14.480;2023-02-01T05:32:22;32.55;;;19.85;;
63688;SDS011;54895;40.928;14.480;2023-02-01T05:34:49;35.47;;;19.70;;
63688;SDS011;54895;40.928;14.480;2023-02-01T05:37:15;31.60;;;18.85;;
63688;SDS011;54895;40.928;14.480;2023-02-01T05:39:41;36.60;;;19.70;;
63688;SDS011;54895;40.928;14.480;2023-02-01T05:42:07;35.38;;;19.65;;
63688;SDS011;54895;40.928;14.480;2023-02-01T05:44:34;41.55;;;20.98;;
63688;SDS011;54895;40.928;14.480;2023-02-01T05:47:00;34.67;;;20.00;;
63688;SDS011;54895;40.928;14.480;2023-02-01T05:49:26;32.22;;;17.95;;
63688;SDS011;54895;40.928;14.480;2023-02-01T05:51:52;31.50;;;16.38;;
63688;SDS011;54895;40.928;14.480;2023-02-01T05:54:19;24.60;;;15.60;;
63688;SDS011;54895;40.928;14.480;2023-02-01T05:56:45;25.75;;;16.67;;
63688;SDS011;54895;40.928;14.480;2023-02-01T05:59:11;27.73;;;15.13;;
63688;SDS011;54895;40.928;14.480;2023-02-01T06:01:37;30.05;;;16.42;;
63688;SDS011;54895;40.928;14.480;2023-02-01T06:04:04;26.55;;;16.08;;
63688;SDS011;54895;40.928;14.480;2023-02-01T06:06:30;27.13;;;15.45;;
63688;SDS011;54895;40.928;14.480;2023-02-01T06:08:57;25.15;;;14.68;;
63688;SDS011;54895;40.928;14.480;2023-02-01T06:11:23;30.65;;;17.38;;
63688;SDS011;54895;40.928;14.480;2023-02-01T06:13:50;29.00;;;16.55;;
63688;SDS011;54895;40.928;14.480;2023-02-01T06:16:16;32.85;;;17.90;;
63688;SDS011;54895;40.928;14.480;2023-02-01T06:18:42;34.47;;;18.20;;
63688;SDS011;54895;40.928;14.480;2023-02-01T06:21:09;31.55;;;18.05;;
63688;SDS011;54895;40.928;14.480;2023-02-01T06:23:35;33.28;;;18.88;;
63688;SDS011;54895;40.928;14.480;2023-02-01T06:26:03;40.15;;;19.38;;
63688;SDS011;54895;40.928;14.480;2023-02-01T06:28:31;32.15;;;18.40;;
63688;SDS011;54895;40.928;14.480;2023-02-01T06:31:02;34.28;;;18.65;;
63688;SDS011;54895;40.928;14.480;2023-02-01T06:33:35;31.08;;;17.92;;
63688;SDS011;54895;40.928;14.480;2023-02-01T06:36:03;40.03;;;20.00;;
63688;SDS011;54895;40.928;14.480;2023-02-01T06:38:32;34.95;;;19.13;;
63688;SDS011;54895;40.928;14.480;2023-02-01T06:41:02;37.83;;;19.40;;
63688;SDS011;54895;40.928;14.480;2023-02-01T06:43:29;42.33;;;19.65;;
63688;SDS011;54895;40.928;14.480;2023-02-01T06:46:01;45.45;;;19.77;;
63688;SDS011;54895;40.928;14.480;2023-02-01T06:48:29;36.00;;;19.35;;
63688;SDS011;54895;40.928;14.480;2023-02-01T06:50:56;33.60;;;19.38;;
63688;SDS011;54895;40.928;14.480;2023-02-01T06:53:23;33.35;;;17.25;;
63688;SDS011;54895;40.928;14.480;2023-02-01T06:55:56;31.70;;;16.05;;
63688;SDS011;54895;40.928;14.480;2023-02-01T06:58:24;33.75;;;16.52;;
63688;SDS011;54895;40.928;14.480;2023-02-01T07:00:53;46.38;;;19.98;;
63688;SDS011;54895;40.928;14.480;2023-02-01T07:03:19;34.95;;;17.33;;
63688;SDS011;54895;40.928;14.480;2023-02-01T07:05:46;36.97;;;16.50;;
63688;SDS011;54895;40.928;14.480;2023-02-01T07:08:12;36.65;;;13.65;;
63688;SDS011;54895;40.928;14.480;2023-02-01T07:10:38;24.73;;;13.30;;
63688;SDS011;54895;40.928;14.480;2023-02-01T07:13:04;30.98;;;12.30;;
63688;SDS011;54895;40.928;14.480;2023-02-01T07:15:31;14.30;;;9.02;;
63688;SDS011;54895;40.928;14.480;2023-02-01T07:17:57;14.52;;;8.77;;
63688;SDS011;54895;40.928;14.480;2023-02-01T07:20:24;17.80;;;9.82;;
63688;SDS011;54895;40.928;14.480;2023-02-01T07:22:54;18.52;;;10.48;;
63688;SDS011;54895;40.928;14.480;2023-02-01T07:25:22;18.15;;;10.43;;
63688;SDS011;54895;40.928;14.480;2023-02-01T07:27:49;19.63;;;12.20;;
63688;SDS011;54895;40.928;14.480;2023-02-01T07:30:15;19.33;;;11.13;;
63688;SDS011;54895;40.928;14.480;2023-02-01T07:32:42;18.58;;;11.98;;
63688;SDS011;54895;40.928;14.480;2023-02-01T07:35:08;19.67;;;12.10;;
63688;SDS011;54895;40.928;14.480;2023-02-01T07:37:35;26.08;;;13.45;;
63688;SDS011;54895;40.928;14.480;2023-02-01T07:40:01;31.58;;;15.13;;
63688;SDS011;54895;40.928;14.480;2023-02-01T07:42:28;28.73;;;14.48;;
63688;SDS011;54895;40.928;14.480;2023-02-01T07:44:54;27.42;;;14.07;;
63688;SDS011;54895;40.928;14.480;2023-02-01T07:47:20;27.00;;;13.43;;
63688;SDS011;54895;40.928;14.480;2023-02-01T07:49:47;32.38;;;14.10;;
63688;SDS011;54895;40.928;14.480;2023-02-01T07:52:13;25.75;;;13.88;;
63688;SDS011;54895;40.928;14.480;2023-02-01T07:54:41;25.90;;;13.10;;
63688;SDS011;54895;40.928;14.480;2023-02-01T07:57:07;25.77;;;13.45;;
63688;SDS011;54895;40.928;14.480;2023-02-01T07:59:34;26.17;;;12.20;;
63688;SDS011;54895;40.928;14.480;2023-02-01T08:02:01;24.65;;;12.40;;
63688;SDS011;54895;40.928;14.480;2023-02-01T08:04:27;24.73;;;12.40;;
63688;SDS011;54895;40.928;14.480;2023-02-01T08:06:55;23.73;;;13.05;;
63688;SDS011;54895;40.928;14.480;2023-02-01T08:09:21;32.05;;;14.55;;
63688;SDS011;54895;40.928;14.480;2023-02-01T08:11:47;27.23;;;14.68;;
63688;SDS011;54895;40.928;14.480;2023-02-01T08:14:14;32.28;;;14.38;;
63688;SDS011;54895;40.928;14.480;2023-02-01T08:16:40;28.15;;;15.18;;
63688;SDS011;54895;40.928;14.480;2023-02-01T08:19:06;23.70;;;13.75;;
63688;SDS011;54895;40.928;14.480;2023-02-01T08:21:33;30.77;;;13.85;;
63688;SDS011;54895;40.928;14.480;2023-02-01T08:24:04;32.67;;;13.00;;
63688;SDS011;54895;40.928;14.480;2023-02-01T08:26:34;25.80;;;13.35;;
63688;SDS011;54895;40.928;14.480;2023-02-01T08:29:01;25.45;;;12.73;;
63688;SDS011;54895;40.928;14.480;2023-02-01T08:31:29;24.20;;;12.52;;
63688;SDS011;54895;40.928;14.480;2023-02-01T08:33:57;24.30;;;12.15;;
63688;SDS011;54895;40.928;14.480;2023-02-01T08:36:26;27.52;;;13.00;;
63688;SDS011;54895;40.928;14.480;2023-02-01T08:38:54;26.33;;;11.07;;
63688;SDS011;54895;40.928;14.480;2023-02-01T08:41:21;19.83;;;10.57;;
63688;SDS011;54895;40.928;14.480;2023-02-01T08:43:49;24.92;;;10.95;;
63688;SDS011;54895;40.928;14.480;2023-02-01T08:46:16;21.42;;;11.23;;
63688;SDS011;54895;40.928;14.480;2023-02-01T08:48:43;21.80;;;12.02;;
63688;SDS011;54895;40.928;14.480;2023-02-01T08:51:12;20.73;;;11.43;;
63688;SDS011;54895;40.928;14.480;2023-02-01T08:53:39;20.52;;;11.18;;
63688;SDS011;54895;40.928;14.480;2023-02-01T08:56:08;24.38;;;11.48;;
63688;SDS011;54895;40.928;14.480;2023-02-01T08:58:36;24.70;;;12.50;;
63688;SDS011;54895;40.928;14.480;2023-02-01T09:01:04;23.88;;;13.15;;
63688;SDS011;54895;40.928;14.480;2023-02-01T09:03:31;28.05;;;13.18;;
63688;SDS011;54895;40.928;14.480;2023-02-01T09:06:05;28.88;;;14.20;;
63688;SDS011;54895;40.928;14.480;2023-02-01T09:08:33;27.67;;;13.25;;
63688;SDS011;54895;40.928;14.480;2023-02-01T09:11:01;20.10;;;12.70;;
63688;SDS011;54895;40.928;14.480;2023-02-01T09:13:31;27.65;;;13.02;;
63688;SDS011;54895;40.928;14.480;2023-02-01T09:15:59;23.40;;;11.75;;
63688;SDS011;54895;40.928;14.480;2023-02-01T09:18:26;19.67;;;10.85;;
63688;SDS011;54895;40.928;14.480;2023-02-01T09:20:52;23.05;;;10.80;;
63688;SDS011;54895;40.928;14.480;2023-02-01T09:23:19;23.98;;;11.00;;
63688;SDS011;54895;40.928;14.480;2023-02-01T09:25:46;22.35;;;11.25;;
63688;SDS011;54895;40.928;14.480;2023-02-01T09:28:16;24.73;;;10.70;;
63688;SDS011;54895;40.928;14.480;2023-02-01T09:30:43;27.00;;;11.18;;
63688;SDS011;54895;40.928;14.480;2023-02-01T09:33:09;22.33;;;11.85;;
63688;SDS011;54895;40.928;14.480;2023-02-01T09:35:35;32.65;;;12.52;;
63688;SDS011;54895;40.928;14.480;2023-02-01T09:38:02;25.65;;;11.20;;
63688;SDS011;54895;40.928;14.480;2023-02-01T09:40:28;21.63;;;11.95;;
63688;SDS011;54895;40.928;14.480;2023-02-01T09:48:39;19.13;;;9.60;;
63688;SDS011;54895;40.928;14.480;2023-02-01T09:51:19;23.60;;;9.52;;
63688;SDS011;54895;40.928;14.480;2023-02-01T09:53:58;17.73;;;9.25;;
63688;SDS011;54895;40.928;14.480;2023-02-01T09:56:34;21.58;;;9.50;;
63688;SDS011;54895;40.928;14.480;2023-02-01T10:01:55;16.70;;;7.20;;
63688;SDS011;54895;40.928;14.480;2023-02-01T10:04:22;18.85;;;7.28;;
63688;SDS011;54895;40.928;14.480;2023-02-01T10:15:17;10.27;;;6.43;;
63688;SDS011;54895;40.928;14.480;2023-02-01T10:23:19;12.65;;;6.38;;
63688;SDS011;54895;40.928;14.480;2023-02-01T10:25:56;11.63;;;5.75;;
63688;SDS011;54895;40.928;14.480;2023-02-01T10:28:42;11.18;;;6.15;;
63688;SDS011;54895;40.928;14.480;2023-02-01T10:31:14;12.95;;;6.60;;
63688;SDS011;54895;40.928;14.480;2023-02-01T10:33:42;12.07;;;5.55;;
63688;SDS011;54895;40.928;14.480;2023-02-01T10:36:16;11.48;;;5.70;;
63688;SDS011;54895;40.928;14.480;2023-02-01T10:38:45;10.35;;;6.03;;
63688;SDS011;54895;40.928;14.480;2023-02-01T10:41:16;11.65;;;6.63;;
63688;SDS011;54895;40.928;14.480;2023-02-01T10:43:45;12.68;;;6.72;;
63688;SDS011;54895;40.928;14.480;2023-02-01T10:46:15;12.35;;;6.43;;
63688;SDS011;54895;40.928;14.480;2023-02-01T10:48:42;14.10;;;6.70;;
63688;SDS011;54895;40.928;14.480;2023-02-01T10:51:20;10.52;;;6.55;;
63688;SDS011;54895;40.928;14.480;2023-02-01T10:53:55;14.43;;;7.65;;
63688;SDS011;54895;40.928;14.480;2023-02-01T10:56:26;20.90;;;7.53;;
63688;SDS011;54895;40.928;14.480;2023-02-01T10:59:03;12.20;;;7.10;;
63688;SDS011;54895;40.928;14.480;2023-02-01T11:01:37;11.57;;;6.93;;
63688;SDS011;54895;40.928;14.480;2023-02-01T11:04:13;13.07;;;7.47;;
63688;SDS011;54895;40.928;14.480;2023-02-01T11:06:45;12.95;;;7.40;;
63688;SDS011;54895;40.928;14.480;2023-02-01T11:09:34;11.88;;;6.85;;
63688;SDS011;54895;40.928;14.480;2023-02-01T11:12:10;13.23;;;7.30;;
63688;SDS011;54895;40.928;14.480;2023-02-01T11:14:49;12.95;;;7.45;;
63688;SDS011;54895;40.928;14.480;2023-02-01T11:17:22;11.80;;;6.50;;
63688;SDS011;54895;40.928;14.480;2023-02-01T11:19:59;11.63;;;7.45;;
63688;SDS011;54895;40.928;14.480;2023-02-01T11:22:28;9.82;;;5.10;;
63688;SDS011;54895;40.928;14.480;2023-02-01T11:24:56;8.13;;;4.60;;
63688;SDS011;54895;40.928;14.480;2023-02-01T11:27:23;9.68;;;5.00;;
63688;SDS011;54895;40.928;14.480;2023-02-01T11:29:52;9.13;;;4.25;;
63688;SDS011;54895;40.928;14.480;2023-02-01T11:32:24;7.60;;;4.90;;
63688;SDS011;54895;40.928;14.480;2023-02-01T11:34:55;7.35;;;4.40;;
63688;SDS011;54895;40.928;14.480;2023-02-01T11:37:40;8.20;;;4.30;;
63688;SDS011;54895;40.928;14.480;2023-02-01T11:42:59;9.60;;;5.18;;
63688;SDS011;54895;40.928;14.480;2023-02-01T11:45:33;9.98;;;5.50;;
63688;SDS011;54895;40.928;14.480;2023-02-01T11:48:00;9.45;;;5.65;;
63688;SDS011;54895;40.928;14.480;2023-02-01T12:04:40;14.27;;;7.45;;
63688;SDS011;54895;40.928;14.480;2023-02-01T12:13:02;14.35;;;7.82;;
63688;SDS011;54895;40.928;14.480;2023-02-01T12:15:37;16.30;;;8.65;;
63688;SDS011;54895;40.928;14.480;2023-02-01T12:35:13;9.27;;;5.15;;
63688;SDS011;54895;40.928;14.480;2023-02-01T12:43:09;12.50;;;6.82;;
63688;SDS011;54895;40.928;14.480;2023-02-01T12:45:47;14.05;;;7.53;;
63688;SDS011;54895;40.928;14.480;2023-02-01T12:50:54;14.85;;;6.43;;
63688;SDS011;54895;40.928;14.480;2023-02-01T12:53:27;15.20;;;7.18;;
63688;SDS011;54895;40.928;14.480;2023-02-01T12:55:59;13.75;;;5.38;;
63688;SDS011;54895;40.928;14.480;2023-02-01T12:58:38;11.13;;;5.50;;
63688;SDS011;54895;40.928;14.480;2023-02-01T13:01:06;11.57;;;5.82;;
63688;SDS011;54895;40.928;14.480;2023-02-01T13:06:57;14.38;;;7.97;;
63688;SDS011;54895;40.928;14.480;2023-02-01T13:12:03;15.43;;;7.93;;
63688;SDS011;54895;40.928;14.480;2023-02-01T13:17:15;3.25;;;2.10;;
63688;SDS011;54895;40.928;14.480;2023-02-01T13:27:36;4.40;;;2.20;;
63688;SDS011;54895;40.928;14.480;2023-02-01T13:32:46;4.25;;;2.17;;
63688;SDS011;54895;40.928;14.480;2023-02-01T13:41:50;6.60;;;2.63;;
63688;SDS011;54895;40.928;14.480;2023-02-01T13:43:55;5.15;;;2.38;;
63688;SDS011;54895;40.928;14.480;2023-02-01T13:46:45;2.28;;;1.75;;
63688;SDS011;54895;40.928;14.480;2023-02-01T13:49:24;4.20;;;1.90;;
63688;SDS011;54895;40.928;14.480;2023-02-01T13:51:55;8.45;;;2.35;;
63688;SDS011;54895;40.928;14.480;2023-02-01T13:54:32;4.15;;;2.10;;
63688;SDS011;54895;40.928;14.480;2023-02-01T13:57:02;3.97;;;2.20;;
63688;SDS011;54895;40.928;14.480;2023-02-01T14:05:03;7.75;;;2.25;;
63688;SDS011;54895;40.928;14.480;2023-02-01T14:13:55;5.47;;;2.47;;
63688;SDS011;54895;40.928;14.480;2023-02-01T14:16:15;4.07;;;2.40;;
63688;SDS011;54895;40.928;14.480;2023-02-01T14:26:20;4.05;;;2.40;;
63688;SDS011;54895;40.928;14.480;2023-02-01T14:31:49;8.13;;;3.10;;
63688;SDS011;54895;40.928;14.480;2023-02-01T14:34:31;6.65;;;3.38;;
63688;SDS011;54895;40.928;14.480;2023-02-01T14:37:28;5.20;;;2.85;;
63688;SDS011;54895;40.928;14.480;2023-02-01T14:39:58;4.03;;;2.85;;
63688;SDS011;54895;40.928;14.480;2023-02-01T14:47:46;5.95;;;2.80;;
63688;SDS011;54895;40.928;14.480;2023-02-01T14:50:25;6.57;;;3.20;;
63688;SDS011;54895;40.928;14.480;2023-02-01T14:55:44;7.45;;;3.72;;
63688;SDS011;54895;40.928;14.480;2023-02-01T15:00:57;6.82;;;3.30;;
63688;SDS011;54895;40.928;14.480;2023-02-01T15:03:43;6.75;;;2.65;;
63688;SDS011;54895;40.928;14.480;2023-02-01T15:09:11;6.63;;;2.90;;
63688;SDS011;54895;40.928;14.480;2023-02-01T15:14:29;5.90;;;3.13;;
63688;SDS011;54895;40.928;14.480;2023-02-01T15:16:57;8.40;;;3.40;;
63688;SDS011;54895;40.928;14.480;2023-02-01T15:19:25;12.68;;;4.03;;
63688;SDS011;54895;40.928;14.480;2023-02-01T15:21:54;4.15;;;3.00;;
63688;SDS011;54895;40.928;14.480;2023-02-01T15:24:28;7.70;;;4.00;;
63688;SDS011;54895;40.928;14.480;2023-02-01T15:26:56;8.75;;;4.55;;
63688;SDS011;54895;40.928;14.480;2023-02-01T15:29:30;10.25;;;4.70;;
63688;SDS011;54895;40.928;14.480;2023-02-01T15:31:58;9.15;;;3.80;;
63688;SDS011;54895;40.928;14.480;2023-02-01T15:34:44;11.88;;;4.18;;
63688;SDS011;54895;40.928;14.480;2023-02-01T15:37:15;8.40;;;3.85;;
63688;SDS011;54895;40.928;14.480;2023-02-01T15:42:37;7.38;;;4.85;;
63688;SDS011;54895;40.928;14.480;2023-02-01T15:45:17;10.93;;;5.90;;
63688;SDS011;54895;40.928;14.480;2023-02-01T15:47:48;9.75;;;4.60;;
63688;SDS011;54895;40.928;14.480;2023-02-01T15:50:17;9.23;;;5.47;;
63688;SDS011;54895;40.928;14.480;2023-02-01T15:52:46;13.15;;;5.55;;
63688;SDS011;54895;40.928;14.480;2023-02-01T15:55:19;11.43;;;4.95;;
63688;SDS011;54895;40.928;14.480;2023-02-01T15:57:48;8.75;;;4.60;;
63688;SDS011;54895;40.928;14.480;2023-02-01T16:00:28;7.63;;;4.35;;
63688;SDS011;54895;40.928;14.480;2023-02-01T16:03:03;13.82;;;5.55;;
63688;SDS011;54895;40.928;14.480;2023-02-01T16:05:35;8.13;;;4.53;;
63688;SDS011;54895;40.928;14.480;2023-02-01T16:08:11;12.57;;;5.72;;
63688;SDS011;54895;40.928;14.480;2023-02-01T16:10:44;10.63;;;5.30;;
63688;SDS011;54895;40.928;14.480;2023-02-01T16:13:13;12.40;;;5.60;;
63688;SDS011;54895;40.928;14.480;2023-02-01T16:15:40;9.35;;;4.85;;
63688;SDS011;54895;40.928;14.480;2023-02-01T16:18:06;10.23;;;4.38;;
63688;SDS011;54895;40.928;14.480;2023-02-01T16:20:36;13.13;;;5.25;;
63688;SDS011;54895;40.928;14.480;2023-02-01T16:23:05;17.30;;;6.15;;
63688;SDS011;54895;40.928;14.480;2023-02-01T16:25:32;11.35;;;5.35;;
63688;SDS011;54895;40.928;14.480;2023-02-01T16:27:58;10.13;;;5.38;;
63688;SDS011;54895;40.928;14.480;2023-02-01T16:30:24;14.15;;;5.90;;
63688;SDS011;54895;40.928;14.480;2023-02-01T16:32:58;12.07;;;6.00;;
63688;SDS011;54895;40.928;14.480;2023-02-01T16:35:30;13.82;;;6.50;;
63688;SDS011;54895;40.928;14.480;2023-02-01T16:38:04;13.63;;;6.82;;
63688;SDS011;54895;40.928;14.480;2023-02-01T16:40:39;12.38;;;6.57;;
63688;SDS011;54895;40.928;14.480;2023-02-01T16:43:16;13.95;;;6.68;;
63688;SDS011;54895;40.928;14.480;2023-02-01T16:45:44;14.25;;;7.25;;
63688;SDS011;54895;40.928;14.480;2023-02-01T16:50:49;16.73;;;8.30;;
63688;SDS011;54895;40.928;14.480;2023-02-01T16:53:17;12.90;;;7.80;;
63688;SDS011;54895;40.928;14.480;2023-02-01T16:55:44;16.58;;;8.23;;
63688;SDS011;54895;40.928;14.480;2023-02-01T16:58:12;18.02;;;8.88;;
63688;SDS011;54895;40.928;14.480;2023-02-01T17:00:39;24.48;;;9.52;;
63688;SDS011;54895;40.928;14.480;2023-02-01T17:03:05;21.90;;;9.68;;
63688;SDS011;54895;40.928;14.480;2023-02-01T17:05:32;18.42;;;9.38;;
63688;SDS011;54895;40.928;14.480;2023-02-01T17:08:00;16.05;;;9.43;;
63688;SDS011;54895;40.928;14.480;2023-02-01T17:10:29;42.88;;;24.73;;
63688;SDS011;54895;40.928;14.480;2023-02-01T17:12:56;47.28;;;28.92;;
63688;SDS011;54895;40.928;14.480;2023-02-01T17:15:24;46.33;;;26.25;;
63688;SDS011;54895;40.928;14.480;2023-02-01T17:17:53;39.78;;;23.95;;
63688;SDS011;54895;40.928;14.480;2023-02-01T17:20:23;57.53;;;35.42;;
63688;SDS011;54895;40.928;14.480;2023-02-01T17:22:50;64.13;;;41.80;;
63688;SDS011;54895;40.928;14.480;2023-02-01T17:25:18;56.33;;;38.53;;
63688;SDS011;54895;40.928;14.480;2023-02-01T17:27:47;55.88;;;35.90;;
63688;SDS011;54895;40.928;14.480;2023-02-01T17:30:14;61.13;;;37.28;;